Terminal Aerodrome Forecast
Issued by NWS

Home | Current Version | Previous Version | Text Only | Print | Product List | Glossary On
Versions: 1 2 3 4 5 6 7 8 9 10 11 12 13 14 15 16 17 18 19 20 21 22 23
000
FTPA31 PHFO 102300
TAFKOA
TAF
PHKO 102325Z 1100/1124 21011KT P6SM BKN050
     FM110600 VRB05KT P6SM SCT050
     FM112000 23011KT P6SM BKN050=

USA.gov is the U.S. government's official web portal to all federal, state and local government web resources and services.